CYNR

METAR CYNR 082300Z AUTO 00000KT 9SM BR CLR M25/M29 A3087 RMK AO2 SLPNO
METAR
LOCATION
CYNR
DATE - TIME
082300Z
WIND
CALM WIND
VISIBILITY
9SM
RUNWAY VISUAL RANGE
NOT REPORTED
WEATHER
MIST
CLOUDINESS
CLR
TEMP / DEWPOINT
-25 ºC / -29 ºC
ALTIMETER
30.87 in. Hg
RECENT WEATHER
NOT REPORTED
WIND SHEAR
NOT REPORTED
REMARKS
RMK AO2 SLPNO
SEA LEVEL PRESSURE: hPa

CYNR

METAR CYNR 082200Z AUTO 20003KT 9SM CLR M25/M29 A3088 RMK AO2 SLPNO
METAR
LOCATION
CYNR
DATE - TIME
082200Z
WIND
200 TRUE @ 3 KNOTS
VISIBILITY
9SM
RUNWAY VISUAL RANGE
NOT REPORTED
WEATHER
CLOUDINESS
CLR
TEMP / DEWPOINT
-25 ºC / -29 ºC
ALTIMETER
30.88 in. Hg
RECENT WEATHER
NOT REPORTED
WIND SHEAR
NOT REPORTED
REMARKS
RMK AO2 SLPNO
SEA LEVEL PRESSURE: hPa

CYNR

SPECI CYNR 082155Z AUTO 20002KT 9SM CLR M25/M29 A3088 RMK AO2 SLPNO
SPECI
LOCATION
CYNR
DATE - TIME
082155Z
WIND
200 TRUE @ 2 KNOTS
VISIBILITY
9SM
RUNWAY VISUAL RANGE
NOT REPORTED
WEATHER
CLOUDINESS
CLR
TEMP / DEWPOINT
-25 ºC / -29 ºC
ALTIMETER
30.88 in. Hg
RECENT WEATHER
NOT REPORTED
WIND SHEAR
NOT REPORTED
REMARKS
RMK AO2 SLPNO
SEA LEVEL PRESSURE: hPa

Your time UTC time
 
 
Weather data provided by AXYS Technologies Inc., www.axystechnologies.com
 
Station History